Old Hickory Observed Data For Previous 48 Hours

Caption
Day and Hour Reservoir Elevation (behind dam)* Tailwater Elevation (below dam)* Average Hourly Discharge*
1/17/2018 1 AM CST 444.61 390.11 6,100
1/17/2018 2 AM CST 444.62 390.92 12,400
1/17/2018 3 AM CST 444.65 390.85 12,200
1/17/2018 4 AM CST 444.63 392.13 18,900
1/17/2018 5 AM CST 444.64 392.74 19,200
1/17/2018 6 AM CST 444.68 392.77 19,200
1/17/2018 7 AM CST 444.60 392.93 19,200
1/17/2018 8 AM CST 444.56 393.11 19,200
1/17/2018 9 AM CST 444.52 393.34 19,500
1/17/2018 10 AM CST 444.49 393.55 19,500
1/17/2018 11 AM CST 444.52 393.57 19,500
1/17/2018 12 PM CST 444.55 393.58 19,500
1/17/2018 1 PM CST 444.57 393.69 19,500
1/17/2018 2 PM CST 444.61 392.00 12,600
1/17/2018 3 PM CST 444.65 391.48 12,400
1/17/2018 4 PM CST 444.72 391.35 12,400
1/17/2018 5 PM CST 444.69 392.79 19,200
1/17/2018 6 PM CST 444.60 393.22 19,200
1/17/2018 7 PM CST 444.64 393.25 19,200
1/17/2018 8 PM CST 444.61 393.32 19,200
1/17/2018 9 PM CST 444.58 393.42 19,500
1/17/2018 10 PM CST 444.58 393.47 19,500
1/17/2018 11 PM CST 444.64 392.00 12,600
1/18/2018 12 AM CST 444.75 390.30 6,100
1/18/2018 1 AM CST 444.85 389.67 6,000
1/18/2018 2 AM CST 444.91 390.55 12,200
1/18/2018 3 AM CST 444.90 390.63 12,200
1/18/2018 4 AM CST 444.91 392.22 18,900
1/18/2018 5 AM CST 444.83 392.59 19,200
1/18/2018 6 AM CST 444.85 392.80 19,200
1/18/2018 7 AM CST 444.73 393.08 19,200
1/18/2018 8 AM CST 444.69 393.12 19,200
1/18/2018 9 AM CST 444.61 393.15 19,200
1/18/2018 10 AM CST 444.61 393.21 19,200
1/18/2018 11 AM CST 444.69 393.32 19,200
1/18/2018 12 PM CST 444.71 393.42 19,200
1/18/2018 1 PM CST 444.75 393.61 19,500
1/18/2018 2 PM CST 444.82 392.25 12,600
1/18/2018 3 PM CST 444.94 391.81 12,400
1/18/2018 4 PM CST 444.96 391.42 12,400
1/18/2018 5 PM CST 444.91 392.68 19,200
1/18/2018 6 PM CST 444.88 392.83 19,200
1/18/2018 7 PM CST 444.88 392.95 19,200
1/18/2018 8 PM CST 444.85 393.07 19,200
1/18/2018 9 PM CST 444.85 393.46 19,200
1/18/2018 10 PM CST 444.85 393.60 19,200

Elevations are in feet above sea level. Discharges are in cubic feet per second and are reported at the end of the hour.